Staunton, Virginia
Current Conditions -  °F | °C
As of 10:35 AM on Thursday 23 Oct 2014 (Local Time) from KW13 Reporting Station
Clear Clear  
Wind Chill: 55°   Ceiling: Unl
Heat Index: 55°   Visibility: 10mi
Dew Point: 40°   Wind: 21mph
Humidity: 58%   Direction: 320°NW
Pressure: 30.01"   Gusts: 26mph
Location:  38.15°N, 79.07°W
Report Text: KW13 231435Z AUTO 32018G23KT 10SM CLR 13/05 A3001 RMK AO1 T01270047
Loading
Personal Weather Stations






























Interactive Weather Map New forecast layout! Learn more

10-Day Weather Forecast

Advertisements
Track Severe Weather on mobile